Time;durP1;ratioP1;P1;durP2;ratioP2;P2;SDS_P1;SDS_P2;PMS_P1;PMS_P2;Temp;Humidity;BMP_temperature;BMP_pressure;BME280_temperature;BME280_humidity;BME280_pressure;Samples;Min_cycle;Max_cycle;Signal;HPM_P1;HPM_P2
2023/08/10 00:00:16;;;;;;;13.30;5.20;;;18.20;91.10;;;;;;5139725;28;20022;-88
2023/08/10 00:02:45;;;;;;;7.80;5.20;;;18.10;91.10;;;;;;5122203;28;20042;-88
2023/08/10 00:05:11;;;;;;;11.80;5.13;;;18.10;91.20;;;;;;5113185;28;20022;-88
2023/08/10 00:07:38;;;;;;;8.27;4.57;;;18.10;91.20;;;;;;5120686;28;20052;-92
2023/08/10 00:10:08;;;;;;;7.75;4.80;;;18.10;91.20;;;;;;5106802;28;20061;-91
2023/08/10 00:12:36;;;;;;;7.88;4.82;;;18.00;91.30;;;;;;5107318;28;20019;-90
2023/08/10 00:15:05;;;;;;;12.23;4.95;;;18.00;91.40;;;;;;5085804;28;20024;-91
2023/08/10 00:17:32;;;;;;;9.52;4.25;;;18.00;91.50;;;;;;5099598;28;20039;-89
2023/08/10 00:19:58;;;;;;;6.13;4.00;;;18.00;91.70;;;;;;5111130;28;20104;-91
2023/08/10 00:22:24;;;;;;;6.93;4.43;;;18.00;91.70;;;;;;5100375;28;20303;-91
2023/08/10 00:24:49;;;;;;;11.43;4.72;;;18.10;91.60;;;;;;5118695;28;20027;-90
2023/08/10 00:27:15;;;;;;;8.85;4.57;;;18.00;91.60;;;;;;5099145;28;20512;-90
2023/08/10 00:29:41;;;;;;;15.38;5.07;;;18.10;91.70;;;;;;5102633;28;20020;-90
2023/08/10 00:32:07;;;;;;;8.95;5.03;;;18.10;91.80;;;;;;5095673;28;20019;-90
2023/08/10 00:34:37;;;;;;;7.53;4.75;;;18.10;91.80;;;;;;5069833;28;20024;-89
2023/08/10 00:37:03;;;;;;;8.90;4.65;;;18.00;91.80;;;;;;5107041;28;20040;-90
2023/08/10 00:39:29;;;;;;;11.80;5.13;;;18.00;91.70;;;;;;5109729;28;20032;-89
2023/08/10 00:41:55;;;;;;;7.78;5.32;;;18.00;91.80;;;;;;5100386;28;20031;-91
2023/08/10 00:44:20;;;;;;;9.98;4.97;;;17.90;91.80;;;;;;5108634;28;20023;-89
2023/08/10 00:46:46;;;;;;;10.80;4.82;;;18.00;91.80;;;;;;5103181;28;20043;-88
2023/08/10 00:49:12;;;;;;;10.90;5.75;;;17.90;91.70;;;;;;5097123;28;20023;-90
2023/08/10 00:51:40;;;;;;;5.10;4.32;;;17.90;91.70;;;;;;5098522;28;20031;-90
2023/08/10 00:54:07;;;;;;;;;;;17.80;91.80;;;;;;5098266;28;20030;-89
2023/08/10 00:56:32;;;;;;;8.68;4.78;;;17.80;91.60;;;;;;5110663;28;19911;-88
2023/08/10 00:58:58;;;;;;;6.15;4.90;;;17.80;91.80;;;;;;5102251;28;20023;-90
2023/08/10 01:01:24;;;;;;;8.18;4.60;;;17.70;91.90;;;;;;5115646;28;20103;-88
2023/08/10 01:03:50;;;;;;;7.25;5.22;;;17.70;91.90;;;;;;5098244;28;20152;-89
2023/08/10 01:06:30;;;;;;;8.73;4.90;;;17.70;92.00;;;;;;5103358;28;20152;-92
2023/08/10 01:09:10;;;;;;;7.82;4.80;;;17.70;92.00;;;;;;5095166;28;20055;-91
2023/08/10 01:12:19;;;;;;;7.82;5.03;;;17.70;92.10;;;;;;5132023;28;20024;-89
2023/08/10 01:15:18;;;;;;;12.98;5.40;;;17.70;92.00;;;;;;5092267;28;20040;-89
2023/08/10 01:17:51;;;;;;;10.00;5.03;;;17.70;92.00;;;;;;5105110;28;20026;-88
2023/08/10 01:20:19;;;;;;;8.82;4.78;;;17.60;92.10;;;;;;5100450;28;20035;-87
2023/08/10 01:23:18;;;;;;;11.15;5.03;;;17.60;92.20;;;;;;5100714;28;20066;-90
2023/08/10 01:25:45;;;;;;;8.25;5.03;;;17.60;92.30;;;;;;5106293;28;20035;-89
2023/08/10 01:28:13;;;;;;;9.82;4.85;;;17.60;92.50;;;;;;5118898;28;20024;-90
2023/08/10 01:30:43;;;;;;;7.88;4.93;;;17.60;92.50;;;;;;5116258;28;20031;-89
2023/08/10 01:33:10;;;;;;;8.80;5.13;;;17.60;92.50;;;;;;5106983;28;20012;-89
2023/08/10 01:35:37;;;;;;;6.65;4.97;;;17.60;92.40;;;;;;5090510;28;20032;-87
2023/08/10 01:38:04;;;;;;;8.75;5.03;;;17.60;92.50;;;;;;5117050;28;20007;-88
2023/08/10 01:40:31;;;;;;;11.30;5.13;;;17.50;92.50;;;;;;5125535;28;20083;-86
2023/08/10 01:42:57;;;;;;;9.75;5.18;;;17.50;92.50;;;;;;5114440;28;20049;-89
2023/08/10 01:45:23;;;;;;;9.07;5.43;;;17.50;92.50;;;;;;5120801;28;20024;-87
2023/08/10 01:47:54;;;;;;;6.72;4.95;;;17.50;92.60;;;;;;5092568;28;20106;-88
2023/08/10 01:50:22;;;;;;;8.27;5.22;;;17.50;92.70;;;;;;5110335;28;20027;-87
2023/08/10 01:53:00;;;;;;;9.93;5.50;;;17.40;92.70;;;;;;5116325;28;20028;-87
2023/08/10 01:55:25;;;;;;;;;;;17.40;92.80;;;;;;5098676;28;20027;-88
2023/08/10 01:57:52;;;;;;;9.38;5.07;;;17.40;92.60;;;;;;5094362;28;19904;-86
2023/08/10 02:00:18;;;;;;;8.50;4.78;;;17.30;92.90;;;;;;5127431;28;20038;-86
2023/08/10 02:02:44;;;;;;;11.50;5.60;;;17.40;93.00;;;;;;5083272;28;20132;-87
2023/08/10 02:05:11;;;;;;;6.30;4.93;;;17.40;93.10;;;;;;5112543;28;20051;-86
2023/08/10 02:07:38;;;;;;;10.68;5.15;;;17.40;93.00;;;;;;5109092;28;20036;-89
2023/08/10 02:10:04;;;;;;;11.27;5.53;;;17.40;92.90;;;;;;5095395;28;20062;-88
2023/08/10 02:12:30;;;;;;;9.05;5.03;;;17.40;92.90;;;;;;5116006;28;20035;-88
2023/08/10 02:14:58;;;;;;;7.75;5.20;;;17.40;92.90;;;;;;5086729;28;20393;-88
2023/08/10 02:17:29;;;;;;;10.60;5.68;;;17.40;92.90;;;;;;5091366;28;20035;-89
2023/08/10 02:19:56;;;;;;;11.07;5.82;;;17.40;92.90;;;;;;5116582;28;20035;-88
2023/08/10 02:22:22;;;;;;;7.80;5.75;;;17.50;92.90;;;;;;5106364;28;20371;-89
2023/08/10 02:24:48;;;;;;;11.82;5.15;;;17.40;92.80;;;;;;5096035;28;20035;-90
2023/08/10 02:27:14;;;;;;;8.07;5.07;;;17.40;92.80;;;;;;5092488;28;20036;-87
2023/08/10 02:29:40;;;;;;;8.73;5.43;;;17.40;92.80;;;;;;5095392;28;20028;-86
2023/08/10 02:32:06;;;;;;;9.68;5.10;;;17.40;93.00;;;;;;5108064;28;20060;-86
2023/08/10 02:34:32;;;;;;;6.53;5.07;;;17.50;92.90;;;;;;5103035;28;20024;-87
2023/08/10 02:36:58;;;;;;;6.57;5.43;;;17.50;92.80;;;;;;5109260;28;20016;-86
2023/08/10 02:39:24;;;;;;;9.80;5.05;;;17.50;92.80;;;;;;5102356;28;20028;-84
2023/08/10 02:41:50;;;;;;;6.88;4.70;;;17.50;92.80;;;;;;5102520;27;20023;-87
2023/08/10 02:44:16;;;;;;;12.00;5.78;;;17.50;92.70;;;;;;5095482;28;20032;-85
2023/08/10 02:46:42;;;;;;;9.95;5.55;;;17.50;92.70;;;;;;5081465;28;20060;-87
2023/08/10 02:49:08;;;;;;;6.35;5.03;;;17.50;92.70;;;;;;5086416;28;20027;-86
2023/08/10 02:51:34;;;;;;;7.63;5.55;;;17.60;92.70;;;;;;5123194;28;20024;-87
2023/08/10 02:54:03;;;;;;;8.63;5.72;;;17.60;92.50;;;;;;5122839;28;20088;-86
2023/08/10 02:56:29;;;;;;;11.00;5.47;;;17.80;92.40;;;;;;5117744;28;20059;-86
2023/08/10 02:58:54;;;;;;;8.02;5.50;;;17.80;92.30;;;;;;5101976;28;20030;-87
2023/08/10 03:01:21;;;;;;;7.35;5.82;;;17.80;92.10;;;;;;5081772;28;20489;-87
2023/08/10 03:03:46;;;;;;;9.13;6.18;;;17.80;92.10;;;;;;5088624;28;20031;-85
2023/08/10 03:06:12;;;;;;;6.57;5.07;;;17.80;92.10;;;;;;5117767;28;20020;-87
2023/08/10 03:08:40;;;;;;;9.10;4.88;;;17.90;92.00;;;;;;5130007;28;20079;-89
2023/08/10 03:11:08;;;;;;;9.05;5.70;;;17.90;91.90;;;;;;5102800;28;20026;-90
2023/08/10 03:13:33;;;;;;;;;;;17.90;91.90;;;;;;5093114;28;20126;-87
2023/08/10 03:16:00;;;;;;;9.30;4.85;;;17.90;91.80;;;;;;5135144;28;19908;-87
2023/08/10 03:18:26;;;;;;;9.38;6.03;;;17.90;91.90;;;;;;5114069;28;20030;-87
2023/08/10 03:20:52;;;;;;;9.15;5.88;;;17.90;91.80;;;;;;5093643;28;20023;-89
2023/08/10 03:23:18;;;;;;;12.43;5.60;;;18.00;91.70;;;;;;5104616;28;20034;-88
2023/08/10 03:25:44;;;;;;;6.28;5.03;;;18.10;91.60;;;;;;5123737;28;20023;-89
2023/08/10 03:28:11;;;;;;;11.32;5.75;;;18.10;91.60;;;;;;5124858;28;20043;-90
2023/08/10 03:30:37;;;;;;;11.25;5.40;;;18.20;91.40;;;;;;5098756;28;20031;-88
2023/08/10 03:33:04;;;;;;;7.90;5.35;;;18.20;91.30;;;;;;5101074;28;20026;-89
2023/08/10 03:35:31;;;;;;;8.70;5.43;;;18.20;91.30;;;;;;5118416;28;20027;-89
2023/08/10 03:37:57;;;;;;;7.90;4.93;;;18.30;91.30;;;;;;5090758;28;20432;-87
2023/08/10 03:40:23;;;;;;;6.05;4.95;;;18.30;91.20;;;;;;5095051;28;20072;-89
2023/08/10 03:42:51;;;;;;;12.80;5.80;;;18.30;91.00;;;;;;5090406;28;20110;-91
2023/08/10 03:45:17;;;;;;;10.07;5.93;;;18.40;91.00;;;;;;5101369;28;20026;-88
2023/08/10 03:47:43;;;;;;;5.75;5.15;;;18.50;91.10;;;;;;5133408;28;20024;-88
2023/08/10 03:50:10;;;;;;;9.00;5.88;;;18.60;90.80;;;;;;5100328;28;20110;-87
2023/08/10 03:52:39;;;;;;;10.63;5.50;;;18.60;90.60;;;;;;5131707;28;20365;-87
2023/08/10 03:55:06;;;;;;;7.80;5.40;;;18.70;90.50;;;;;;5117483;28;20729;-90
2023/08/10 03:57:32;;;;;;;8.57;5.15;;;18.70;90.50;;;;;;5117389;28;20479;-88
2023/08/10 03:59:58;;;;;;;10.63;5.73;;;18.80;90.40;;;;;;5098164;28;20016;-88
2023/08/10 04:02:24;;;;;;;10.60;5.15;;;18.80;90.30;;;;;;5096954;28;20039;-87
2023/08/10 04:04:50;;;;;;;8.57;5.40;;;18.80;90.30;;;;;;5100940;28;20058;-89
2023/08/10 04:07:16;;;;;;;10.90;5.13;;;18.90;90.20;;;;;;5099592;28;20032;-88
2023/08/10 04:09:46;;;;;;;7.15;5.07;;;18.90;90.00;;;;;;5104305;28;20040;-91
2023/08/10 04:12:12;;;;;;;10.30;5.82;;;18.90;89.70;;;;;;5085732;28;20369;-90
2023/08/10 04:14:38;;;;;;;9.30;5.70;;;19.00;89.60;;;;;;5098689;28;20030;-88
2023/08/10 04:17:04;;;;;;;6.75;5.03;;;19.00;89.80;;;;;;5106449;28;20031;-90
2023/08/10 04:19:30;;;;;;;11.60;5.38;;;19.00;89.70;;;;;;5088891;28;20081;-89
2023/08/10 04:21:57;;;;;;;11.83;5.33;;;19.00;89.60;;;;;;5098445;28;20044;-87
2023/08/10 04:24:22;;;;;;;9.18;4.93;;;19.10;89.40;;;;;;5109490;28;20028;-87
2023/08/10 04:26:48;;;;;;;14.38;5.75;;;19.20;89.30;;;;;;5102663;28;20028;-88
2023/08/10 04:29:16;;;;;;;8.10;5.20;;;19.20;89.20;;;;;;5114631;28;20381;-87
2023/08/10 04:31:42;;;;;;;8.68;5.35;;;19.20;88.60;;;;;;5098301;28;20023;-88
2023/08/10 04:34:08;;;;;;;12.40;5.60;;;19.30;89.40;;;;;;5115256;28;20106;-89
2023/08/10 04:36:34;;;;;;;11.95;5.65;;;19.40;88.30;;;;;;5103045;28;20024;-87
2023/08/10 04:39:01;;;;;;;7.65;5.22;;;19.40;88.30;;;;;;5095136;28;20031;-87
2023/08/10 04:41:27;;;;;;;7.68;5.10;;;19.40;88.20;;;;;;5108606;28;20020;-87
2023/08/10 04:43:53;;;;;;;11.38;5.40;;;19.40;88.30;;;;;;5095162;28;20035;-89
2023/08/10 04:46:19;;;;;;;9.25;5.40;;;19.50;88.40;;;;;;5096144;28;20020;-86
2023/08/10 04:48:45;;;;;;;8.52;5.32;;;19.60;88.20;;;;;;5082879;28;20484;-87
2023/08/10 04:51:11;;;;;;;8.23;5.70;;;19.80;88.10;;;;;;5100525;28;20019;-88
2023/08/10 04:53:37;;;;;;;6.90;4.95;;;19.90;87.50;;;;;;5110138;28;20027;-88
2023/08/10 04:56:03;;;;;;;8.07;5.28;;;20.40;86.70;;;;;;5094093;28;20016;-89
2023/08/10 04:58:29;;;;;;;14.68;6.18;;;21.00;84.00;;;;;;5078189;28;20504;-88
2023/08/10 05:00:55;;;;;;;6.40;5.17;;;21.80;82.40;;;;;;5112008;28;20024;-92
2023/08/10 05:03:22;;;;;;;8.50;4.80;;;22.70;79.00;;;;;;5076564;28;20028;-90
2023/08/10 05:05:49;;;;;;;7.43;4.65;;;23.40;75.10;;;;;;5101679;28;20267;-88
2023/08/10 05:08:15;;;;;;;7.72;4.45;;;23.80;73.40;;;;;;5109388;28;20040;-88
2023/08/10 05:10:43;;;;;;;7.72;4.35;;;24.10;72.40;;;;;;5130010;28;20068;-85
2023/08/10 05:13:10;;;;;;;7.90;4.45;;;24.50;71.00;;;;;;5106210;28;20012;-90
2023/08/10 05:15:36;;;;;;;10.32;4.65;;;24.90;69.50;;;;;;5115646;28;20077;-92
2023/08/10 05:18:02;;;;;;;7.15;4.90;;;25.20;68.20;;;;;;5101426;28;20032;-91
2023/08/10 05:20:28;;;;;;;8.23;4.65;;;25.60;67.80;;;;;;5099763;28;20027;-93
2023/08/10 05:22:54;;;;;;;6.75;4.30;;;26.00;66.10;;;;;;5090995;28;20096;-91
2023/08/10 05:25:20;;;;;;;8.60;4.53;;;26.30;65.20;;;;;;5102174;28;20031;-88
2023/08/10 05:27:47;;;;;;;9.15;4.25;;;26.80;64.30;;;;;;5101892;28;20031;-90
2023/08/10 05:30:13;;;;;;;7.72;4.70;;;27.20;62.90;;;;;;5092834;28;20069;-90
2023/08/10 05:32:43;;;;;;;8.47;4.17;;;27.50;62.20;;;;;;5115552;28;20024;-92
2023/08/10 05:35:10;;;;;;;9.48;5.13;;;27.80;61.60;;;;;;5105436;28;20268;-94
2023/08/10 05:37:49;;;;;;;13.65;7.70;;;28.10;60.50;;;;;;5112393;28;20042;-93
2023/08/10 05:40:19;;;;;;;9.52;4.47;;;28.40;59.50;;;;;;5107211;28;20030;-89
2023/08/10 05:42:48;;;;;;;7.80;4.90;;;28.60;59.20;;;;;;5115830;28;20046;-90
2023/08/10 05:45:20;;;;;;;10.13;4.72;;;29.10;58.40;;;;;;5094617;28;20032;-89
2023/08/10 05:47:49;;;;;;;6.68;4.45;;;29.60;57.50;;;;;;5118894;28;20035;-87
2023/08/10 05:50:15;;;;;;;10.43;4.20;;;29.90;55.90;;;;;;5111066;28;20044;-88
2023/08/10 05:52:42;;;;;;;10.15;4.75;;;30.10;55.90;;;;;;5115026;28;20028;-86
2023/08/10 05:55:09;;;;;;;8.65;4.68;;;30.50;55.10;;;;;;5099897;28;20015;-85
2023/08/10 05:57:36;;;;;;;10.80;3.97;;;31.10;54.00;;;;;;5109803;28;20011;-86
2023/08/10 06:00:03;;;;;;;8.98;4.85;;;31.30;53.60;;;;;;5106423;28;20118;-89
2023/08/10 06:02:29;;;;;;;11.35;4.78;;;31.60;52.70;;;;;;5099513;28;20078;-89
2023/08/10 06:04:57;;;;;;;9.00;4.45;;;32.00;52.00;;;;;;5092343;28;20024;-90
2023/08/10 06:07:25;;;;;;;9.18;4.55;;;32.60;51.60;;;;;;5073375;28;20118;-89
2023/08/10 06:09:52;;;;;;;8.55;4.40;;;33.10;50.40;;;;;;5086974;28;20080;-92
2023/08/10 06:12:18;;;;;;;12.45;4.53;;;;;;;;;;5102361;28;20113;-90
2023/08/10 06:14:45;;;;;;;8.02;4.25;;;33.90;48.60;;;;;;5083424;28;20024;-93
2023/08/10 06:17:11;;;;;;;9.05;4.78;;;34.70;49.20;;;;;;5104556;28;20126;-92
2023/08/10 06:19:37;;;;;;;9.52;4.57;;;35.00;48.40;;;;;;5101154;28;20016;-91
2023/08/10 06:22:04;;;;;;;7.18;4.63;;;35.40;46.80;;;;;;5084693;28;20574;-90
2023/08/10 06:24:31;;;;;;;10.73;4.70;;;35.50;46.10;;;;;;5054996;28;20153;-91
2023/08/10 06:26:59;;;;;;;9.40;4.10;;;35.50;46.70;;;;;;5085697;28;20484;-92
2023/08/10 06:29:25;;;;;;;4.70;4.10;;;35.70;45.80;;;;;;5110888;28;20024;-91
2023/08/10 06:31:53;;;;;;;8.43;4.50;;;35.80;45.50;;;;;;5100766;28;20027;-91
2023/08/10 06:34:21;;;;;;;8.55;4.00;;;36.50;45.20;;;;;;5109838;28;20027;-91
2023/08/10 06:36:47;;;;;;;7.45;4.13;;;36.70;44.20;;;;;;5085550;28;20409;-91
2023/08/10 06:39:13;;;;;;;6.25;3.75;;;36.90;43.80;;;;;;5081182;28;20028;-92
2023/08/10 06:41:39;;;;;;;7.53;3.90;;;37.00;43.20;;;;;;5084643;28;20081;-91
2023/08/10 06:44:06;;;;;;;8.90;4.28;;;36.40;44.00;;;;;;5070239;28;20152;-92
2023/08/10 06:46:32;;;;;;;6.10;3.70;;;36.50;43.80;;;;;;5092814;28;20036;-91
2023/08/10 06:48:58;;;;;;;10.13;4.28;;;37.10;43.40;;;;;;5064423;28;20038;-92
2023/08/10 06:51:24;;;;;;;6.93;4.00;;;37.40;42.80;;;;;;5086248;28;20064;-90
2023/08/10 06:53:53;;;;;;;7.57;3.63;;;37.40;42.90;;;;;;5107973;28;20024;-92
2023/08/10 06:56:19;;;;;;;4.95;3.88;;;37.40;42.80;;;;;;5104822;28;20561;-92
2023/08/10 06:58:45;;;;;;;6.57;3.70;;;37.40;42.70;;;;;;5103587;28;20039;-92
2023/08/10 07:01:11;;;;;;;8.25;4.05;;;37.40;42.50;;;;;;5103795;28;20034;-93
2023/08/10 07:03:40;;;;;;;9.73;3.80;;;37.50;42.50;;;;;;5103623;28;20031;-94
2023/08/10 07:06:07;;;;;;;9.52;4.30;;;37.60;42.40;;;;;;5091398;28;20067;-93
2023/08/10 07:08:34;;;;;;;7.70;3.20;;;38.20;42.30;;;;;;5109545;28;20056;-91
2023/08/10 07:11:03;;;;;;;8.52;3.28;;;38.90;41.10;;;;;;5114284;28;20476;-91
2023/08/10 07:13:29;;;;;;;8.55;3.67;;;39.10;40.70;;;;;;5103351;28;20032;-91
2023/08/10 07:15:55;;;;;;;;;;;38.90;40.20;;;;;;5092954;28;20042;-90
2023/08/10 07:18:22;;;;;;;5.70;3.45;;;38.80;41.80;;;;;;5102611;28;19912;-91
2023/08/10 07:20:49;;;;;;;7.63;3.53;;;39.20;40.60;;;;;;5097950;28;20011;-91
2023/08/10 07:23:18;;;;;;;4.82;3.22;;;39.60;39.60;;;;;;5115130;28;20027;-90
2023/08/10 07:25:47;;;;;;;4.82;3.53;;;39.60;39.40;;;;;;5089717;28;20032;-90
2023/08/10 07:28:13;;;;;;;6.72;3.83;;;39.80;39.40;;;;;;5117988;28;20020;-90
2023/08/10 07:30:40;;;;;;;7.75;3.35;;;39.50;39.20;;;;;;5132054;28;20010;-91
2023/08/10 07:33:14;;;;;;;7.05;4.03;;;39.00;39.70;;;;;;5120919;28;20015;-91
2023/08/10 07:35:43;;;;;;;6.65;3.55;;;39.00;40.10;;;;;;5114610;28;20021;-91
2023/08/10 07:38:11;;;;;;;8.13;3.60;;;39.40;39.40;;;;;;5099116;28;20036;-91
2023/08/10 07:40:39;;;;;;;6.38;3.10;;;39.60;39.00;;;;;;5135572;28;20008;-86
2023/08/10 07:43:05;;;;;;;8.82;3.05;;;39.80;38.60;;;;;;5131286;28;20051;-87
2023/08/10 07:45:31;;;;;;;;;;;40.00;38.70;;;;;;5115683;28;20012;-92
2023/08/10 07:48:00;;;;;;;9.57;3.28;;;;;;;;;;5113377;28;19918;-91
2023/08/10 07:50:27;;;;;;;9.82;3.38;;;40.20;39.40;;;;;;5110608;28;20117;-91
2023/08/10 07:52:53;;;;;;;8.20;3.60;;;40.60;37.80;;;;;;5092307;28;20020;-91
2023/08/10 07:55:20;;;;;;;;;;;40.20;37.70;;;;;;5097930;28;20039;-90
2023/08/10 07:57:47;;;;;;;6.72;3.33;;;39.90;38.80;;;;;;5093902;28;19992;-91
2023/08/10 08:00:13;;;;;;;6.80;3.58;;;40.50;38.20;;;;;;5087845;28;20049;-92
2023/08/10 08:02:40;;;;;;;7.10;3.65;;;40.90;37.60;;;;;;5109897;28;20040;-93
2023/08/10 08:05:07;;;;;;;9.63;4.07;;;40.90;37.50;;;;;;5116177;28;20027;-93
2023/08/10 08:07:34;;;;;;;8.27;3.80;;;40.10;37.10;;;;;;5116262;28;20034;-91
2023/08/10 08:10:03;;;;;;;6.53;3.25;;;36.60;39.20;;;;;;5109321;28;20074;-91
2023/08/10 08:12:29;;;;;;;9.10;4.50;;;34.30;41.50;;;;;;5096143;28;20095;-93
2023/08/10 08:14:56;;;;;;;5.28;3.95;;;33.90;43.70;;;;;;5100385;28;20103;-91
2023/08/10 08:17:25;;;;;;;5.60;3.85;;;34.00;44.90;;;;;;5099729;28;20040;-93
2023/08/10 08:19:55;;;;;;;8.10;3.40;;;35.20;43.60;;;;;;5083494;28;20040;-93
2023/08/10 08:22:24;;;;;;;5.35;3.10;;;36.80;41.70;;;;;;5101592;28;20119;-92
2023/08/10 08:24:51;;;;;;;6.40;3.25;;;38.00;40.00;;;;;;5076173;28;20492;-91
2023/08/10 08:27:18;;;;;;;6.38;3.03;;;40.00;38.70;;;;;;5085916;28;20039;-91
2023/08/10 08:29:48;;;;;;;7.25;3.42;;;40.20;37.90;;;;;;5068987;28;20024;-90
2023/08/10 08:32:14;;;;;;;7.10;3.53;;;41.00;37.00;;;;;;5104331;28;20062;-89
2023/08/10 08:34:40;;;;;;;8.35;3.30;;;39.60;36.70;;;;;;5096696;28;20024;-91
2023/08/10 08:37:08;;;;;;;5.13;3.40;;;37.30;38.50;;;;;;5077242;28;20116;-90
2023/08/10 08:39:34;;;;;;;9.02;3.78;;;;;;;;;;5042849;28;20067;-91
2023/08/10 08:42:07;;;;;;;7.65;3.63;;;34.90;40.50;;;;;;5053815;28;20070;-94
2023/08/10 08:44:33;;;;;;;6.32;3.58;;;;;;;;;;5001265;28;20030;-92
2023/08/10 08:47:01;;;;;;;5.00;3.72;;;;;;;;;;5043104;28;20457;-93
2023/08/10 08:49:27;;;;;;;12.30;7.90;;;;;;;;;;5068312;28;20029;-90
2023/08/10 08:51:56;;;;;;;13.18;6.25;;;;;;;;;;5076906;28;20033;-94
2023/08/10 08:54:24;;;;;;;8.77;3.65;;;;;;;;;;5070333;28;20016;-93
2023/08/10 08:56:52;;;;;;;14.38;6.57;;;;;;;;;;5067084;28;20096;-93
2023/08/10 08:59:19;;;;;;;6.07;3.78;;;;;;;;;;5064027;28;20060;-94
2023/08/10 09:01:45;;;;;;;8.13;4.07;;;;;;;;;;5067187;28;20032;-91
2023/08/10 09:04:12;;;;;;;7.68;3.78;;;;;;;;;;5067842;28;20028;-92
2023/08/10 09:06:38;;;;;;;10.02;3.60;;;;;;;;;;5069771;28;20025;-92
2023/08/10 09:09:04;;;;;;;;;;;;;;;;;;5069175;28;20106;-93
2023/08/10 09:11:32;;;;;;;5.50;3.60;;;;;;;;;;5129187;28;19914;-92
2023/08/10 09:14:08;;;;;;;6.35;3.88;;;32.00;46.10;;;;;;5121924;28;20057;-92
2023/08/10 09:16:37;;;;;;;8.20;4.00;;;31.00;47.10;;;;;;5086996;28;20062;-92
2023/08/10 09:19:09;;;;;;;9.85;3.58;;;29.30;47.80;;;;;;5109356;28;20032;-93
2023/08/10 09:21:35;;;;;;;6.65;3.60;;;29.20;49.50;;;;;;5110839;28;20049;-92
2023/08/10 09:24:02;;;;;;;7.57;3.80;;;28.90;50.40;;;;;;5133263;28;20023;-92
2023/08/10 09:26:31;;;;;;;10.93;3.85;;;28.60;51.00;;;;;;5135860;28;20102;-92
2023/08/10 09:28:58;;;;;;;7.35;4.45;;;28.20;52.30;;;;;;5099659;28;20424;-90
2023/08/10 09:31:27;;;;;;;7.35;4.47;;;27.70;53.40;;;;;;5083237;28;20028;-92
2023/08/10 09:33:59;;;;;;;6.95;4.88;;;27.50;54.20;;;;;;5096069;28;20075;-90
2023/08/10 09:36:28;;;;;;;8.52;4.15;;;27.40;53.90;;;;;;5103249;28;20025;-90
2023/08/10 09:38:56;;;;;;;9.75;4.80;;;27.60;53.70;;;;;;5123088;28;20020;-89
2023/08/10 09:41:24;;;;;;;8.95;4.10;;;27.90;53.10;;;;;;5114780;28;20028;-90
2023/08/10 09:43:51;;;;;;;8.38;4.28;;;29.30;51.50;;;;;;5115197;28;20024;-92
2023/08/10 09:46:19;;;;;;;4.47;3.33;;;;;;;;;;5110573;28;20019;-92
2023/08/10 09:49:23;;;;;;;5.43;3.83;;;30.10;47.20;;;;;;5120920;28;20032;-89
2023/08/10 09:51:59;;;;;;;7.28;3.85;;;30.10;47.90;;;;;;5118068;28;20028;-93
2023/08/10 09:54:48;;;;;;;5.80;3.80;;;29.60;48.60;;;;;;5123589;28;20087;-90
2023/08/10 09:57:56;;;;;;;13.35;5.30;;;29.40;49.10;;;;;;5120624;28;20055;-93
2023/08/10 10:00:54;;;;;;;15.23;4.05;;;29.30;49.50;;;;;;5106115;28;20023;-92
2023/08/10 10:03:32;;;;;;;6.20;4.20;;;29.10;49.80;;;;;;5093932;28;20036;-90
2023/08/10 10:06:04;;;;;;;12.15;3.97;;;28.80;50.30;;;;;;5134812;28;20039;-91
2023/08/10 10:08:35;;;;;;;7.18;4.20;;;29.80;50.10;;;;;;5113626;28;20040;-93
2023/08/10 10:11:09;;;;;;;14.15;9.40;;;31.30;47.50;;;;;;5094268;28;20024;-90
2023/08/10 10:13:36;;;;;;;10.13;4.57;;;31.60;46.70;;;;;;5096953;28;20044;-94
2023/08/10 10:16:02;;;;;;;;;;;;;;;;;;5103226;28;20035;-89
2023/08/10 10:18:28;;;;;;;5.30;3.42;;;32.20;46.70;;;;;;5118597;28;19911;-91
2023/08/10 10:20:58;;;;;;;5.22;3.20;;;33.20;44.50;;;;;;5110144;28;20051;-93
2023/08/10 10:23:29;;;;;;;11.63;6.70;;;33.20;44.30;;;;;;5084549;28;20028;-90
2023/08/10 10:26:08;;;;;;;10.52;4.10;;;32.70;44.40;;;;;;5121833;28;20035;-91
2023/08/10 10:28:35;;;;;;;9.48;4.20;;;31.80;45.80;;;;;;5118286;28;20052;-89
2023/08/10 10:31:14;;;;;;;7.90;4.03;;;31.30;46.80;;;;;;5069430;28;20025;-91
2023/08/10 10:33:54;;;;;;;7.55;3.85;;;30.50;47.30;;;;;;5058762;28;20057;-91
2023/08/10 10:36:21;;;;;;;4.03;3.50;;;29.80;49.10;;;;;;5066387;28;20090;-90
2023/08/10 10:39:11;;;;;;;6.47;3.60;;;29.30;49.70;;;;;;5069599;28;20044;-93
2023/08/10 10:41:41;;;;;;;10.35;3.90;;;29.30;49.90;;;;;;5059645;28;20068;-90
2023/08/10 10:44:09;;;;;;;6.28;3.95;;;29.30;49.50;;;;;;5065636;28;20416;-90
2023/08/10 10:46:44;;;;;;;6.72;3.58;;;29.30;49.20;;;;;;5058601;28;20063;-90
2023/08/10 10:49:20;;;;;;;4.97;3.08;;;29.20;49.90;;;;;;5052369;28;20545;-89
2023/08/10 10:51:54;;;;;;;10.75;7.35;;;29.00;49.20;;;;;;5059299;28;20036;-91
2023/08/10 10:54:21;;;;;;;6.10;4.10;;;28.80;49.80;;;;;;5067141;28;20044;-92
2023/08/10 10:56:47;;;;;;;;;;;28.60;50.80;;;;;;5076478;28;20096;-90
2023/08/10 10:59:14;;;;;;;4.37;3.70;;;28.30;50.30;;;;;;5064170;28;20019;-91
2023/08/10 11:01:40;;;;;;;10.68;4.20;;;28.20;51.70;;;;;;5069199;28;20104;-90
2023/08/10 11:04:07;;;;;;;8.75;3.50;;;28.10;51.90;;;;;;5071271;28;20052;-88
2023/08/10 11:06:37;;;;;;;4.00;3.33;;;28.10;52.10;;;;;;5066766;28;20012;-91
2023/08/10 11:09:07;;;;;;;4.72;3.53;;;28.20;51.20;;;;;;5088370;28;20101;-91
2023/08/10 11:11:34;;;;;;;9.00;3.88;;;28.10;50.90;;;;;;5112032;28;20090;-87
2023/08/10 11:14:03;;;;;;;7.13;3.40;;;28.00;50.90;;;;;;5091863;28;20016;-89
2023/08/10 11:16:39;;;;;;;9.00;3.50;;;27.80;50.80;;;;;;5060446;28;20067;-89
2023/08/10 11:19:07;;;;;;;;;;;27.60;51.60;;;;;;5048904;28;20513;-89
2023/08/10 11:21:37;;;;;;;8.77;4.28;;;;;;;;;;5060320;28;19908;-89
2023/08/10 11:24:06;;;;;;;6.95;4.18;;;;;;;;;;5044984;28;20029;-88
2023/08/10 11:26:33;;;;;;;7.72;3.75;;;;;;;;;;5045008;28;20045;-90
2023/08/10 11:29:00;;;;;;;8.15;4.07;;;;;;;;;;5046435;28;20033;-90
2023/08/10 11:31:26;;;;;;;4.70;3.95;;;;;;;;;;5064975;28;20021;-90
2023/08/10 11:33:53;;;;;;;7.00;4.13;;;;;;;;;;5053998;28;20059;-89
2023/08/10 11:36:26;;;;;;;8.35;3.65;;;;;;;;;;5061720;28;20037;-91
2023/08/10 11:38:53;;;;;;;6.93;3.20;;;;;;;;;;5032283;28;20037;-90
2023/08/10 11:41:19;;;;;;;11.05;7.53;;;27.50;51.70;;;;;;5060826;28;20063;-90
2023/08/10 11:43:46;;;;;;;17.65;10.20;;;26.80;54.90;;;;;;5062499;28;20029;-91
2023/08/10 11:46:12;;;;;;;16.88;12.05;;;26.70;54.60;;;;;;5045414;28;20033;-90
2023/08/10 11:48:58;;;;;;;10.55;6.95;;;26.70;55.00;;;;;;5042197;28;20041;-91
2023/08/10 11:51:32;;;;;;;11.50;7.13;;;26.60;54.80;;;;;;5063971;28;20021;-92
2023/08/10 11:54:07;;;;;;;4.93;4.45;;;26.60;55.00;;;;;;5049494;28;20029;-88
2023/08/10 11:56:33;;;;;;;7.35;4.07;;;26.70;55.00;;;;;;5071786;28;20020;-90
2023/08/10 11:59:14;;;;;;;11.30;4.10;;;26.70;54.60;;;;;;5054621;28;20043;-89
2023/08/10 12:01:47;;;;;;;11.20;5.85;;;26.70;54.10;;;;;;5057794;28;20025;-90
2023/08/10 12:04:14;;;;;;;6.63;3.40;;;26.80;53.70;;;;;;5074528;28;20024;-88
2023/08/10 12:06:40;;;;;;;7.00;3.30;;;26.80;52.90;;;;;;5103947;28;20057;-90
2023/08/10 12:09:13;;;;;;;7.93;3.65;;;26.70;52.60;;;;;;5084908;28;20047;-87
2023/08/10 12:11:40;;;;;;;5.13;3.22;;;26.70;54.10;;;;;;5081871;28;20055;-89
2023/08/10 12:14:08;;;;;;;11.68;4.40;;;26.70;52.80;;;;;;5085865;28;20033;-90
2023/08/10 12:16:36;;;;;;;4.45;3.10;;;26.60;52.90;;;;;;5068733;28;20025;-90
2023/08/10 12:19:03;;;;;;;5.75;4.00;;;26.60;52.60;;;;;;5087911;28;20124;-89
2023/08/10 12:21:31;;;;;;;9.73;3.97;;;26.40;53.40;;;;;;5072200;28;20033;-90
2023/08/10 12:23:58;;;;;;;6.40;3.00;;;26.40;53.20;;;;;;5074848;28;20039;-88
2023/08/10 12:26:26;;;;;;;4.80;3.15;;;26.30;52.90;;;;;;5068720;28;20025;-90
2023/08/10 12:28:55;;;;;;;6.85;5.25;;;26.20;52.70;;;;;;5049543;28;20037;-88
2023/08/10 12:31:23;;;;;;;8.18;3.88;;;26.20;54.10;;;;;;5062783;28;20079;-91
2023/08/10 12:33:50;;;;;;;5.22;3.55;;;25.60;53.60;;;;;;5062972;28;21078;-90
2023/08/10 12:36:17;;;;;;;7.35;3.80;;;26.10;52.80;;;;;;5062531;28;20028;-89
2023/08/10 12:38:43;;;;;;;8.55;4.20;;;26.00;53.70;;;;;;5062946;28;20048;-90
2023/08/10 12:41:10;;;;;;;8.40;4.05;;;26.10;54.10;;;;;;5095187;28;20039;-89
2023/08/10 12:43:35;;;;;;;5.38;3.65;;;26.10;53.80;;;;;;5114297;28;20024;-90
2023/08/10 12:46:02;;;;;;;7.90;4.32;;;26.10;53.20;;;;;;5104687;28;20072;-89
2023/08/10 12:48:28;;;;;;;8.68;4.25;;;26.10;53.60;;;;;;5105285;28;20496;-88
2023/08/10 12:50:56;;;;;;;6.55;3.92;;;26.00;53.50;;;;;;5089454;28;20027;-90
2023/08/10 12:53:24;;;;;;;5.15;3.45;;;26.00;53.70;;;;;;5095663;28;20024;-89
2023/08/10 12:55:55;;;;;;;4.50;3.42;;;26.00;53.20;;;;;;5085824;28;20092;-90
2023/08/10 12:58:21;;;;;;;10.63;4.50;;;25.90;53.60;;;;;;5103536;28;20035;-89
2023/08/10 13:00:47;;;;;;;6.07;3.78;;;25.80;53.90;;;;;;5109133;28;20028;-88